sensor_id;sensor_type;location;lat;lon;timestamp;P1;durP1;ratioP1;P2;durP2;ratioP2
13487;SDS011;6816;48.506;9.050;2023-12-28T00:02:15;3.83;;;2.90;;
13487;SDS011;6816;48.506;9.050;2023-12-28T00:05:15;4.57;;;2.77;;
13487;SDS011;6816;48.506;9.050;2023-12-28T00:08:16;4.30;;;3.10;;
13487;SDS011;6816;48.506;9.050;2023-12-28T00:11:17;4.63;;;3.10;;
13487;SDS011;6816;48.506;9.050;2023-12-28T00:14:17;4.30;;;3.30;;
13487;SDS011;6816;48.506;9.050;2023-12-28T00:17:18;4.20;;;3.07;;
13487;SDS011;6816;48.506;9.050;2023-12-28T00:20:18;4.10;;;2.90;;
13487;SDS011;6816;48.506;9.050;2023-12-28T00:23:19;5.07;;;3.87;;
13487;SDS011;6816;48.506;9.050;2023-12-28T00:26:20;6.43;;;3.80;;
13487;SDS011;6816;48.506;9.050;2023-12-28T00:29:21;6.23;;;3.80;;
13487;SDS011;6816;48.506;9.050;2023-12-28T00:32:22;5.93;;;3.97;;
13487;SDS011;6816;48.506;9.050;2023-12-28T00:35:22;4.63;;;3.73;;
13487;SDS011;6816;48.506;9.050;2023-12-28T00:38:23;5.93;;;3.80;;
13487;SDS011;6816;48.506;9.050;2023-12-28T00:41:23;6.73;;;4.10;;
13487;SDS011;6816;48.506;9.050;2023-12-28T00:44:24;6.70;;;4.03;;
13487;SDS011;6816;48.506;9.050;2023-12-28T00:47:25;6.20;;;3.50;;
13487;SDS011;6816;48.506;9.050;2023-12-28T00:50:25;5.00;;;3.83;;
13487;SDS011;6816;48.506;9.050;2023-12-28T00:53:31;5.07;;;3.60;;
13487;SDS011;6816;48.506;9.050;2023-12-28T00:56:32;6.03;;;3.80;;
13487;SDS011;6816;48.506;9.050;2023-12-28T00:59:32;4.13;;;3.37;;
13487;SDS011;6816;48.506;9.050;2023-12-28T01:02:33;4.93;;;3.40;;
13487;SDS011;6816;48.506;9.050;2023-12-28T01:05:34;3.93;;;3.40;;
13487;SDS011;6816;48.506;9.050;2023-12-28T01:08:34;5.37;;;3.77;;
13487;SDS011;6816;48.506;9.050;2023-12-28T01:11:35;4.90;;;3.63;;
13487;SDS011;6816;48.506;9.050;2023-12-28T01:14:36;5.40;;;3.60;;
13487;SDS011;6816;48.506;9.050;2023-12-28T01:17:36;4.70;;;4.00;;
13487;SDS011;6816;48.506;9.050;2023-12-28T01:20:37;6.67;;;3.93;;
13487;SDS011;6816;48.506;9.050;2023-12-28T01:23:38;4.03;;;3.40;;
13487;SDS011;6816;48.506;9.050;2023-12-28T01:26:39;5.13;;;3.93;;
13487;SDS011;6816;48.506;9.050;2023-12-28T01:29:40;4.47;;;3.10;;
13487;SDS011;6816;48.506;9.050;2023-12-28T01:32:40;4.70;;;3.80;;
13487;SDS011;6816;48.506;9.050;2023-12-28T01:35:41;4.90;;;3.57;;
13487;SDS011;6816;48.506;9.050;2023-12-28T01:38:42;5.17;;;3.77;;
13487;SDS011;6816;48.506;9.050;2023-12-28T01:41:43;5.10;;;3.60;;
13487;SDS011;6816;48.506;9.050;2023-12-28T01:44:44;5.00;;;3.60;;
13487;SDS011;6816;48.506;9.050;2023-12-28T01:47:44;5.30;;;3.37;;
13487;SDS011;6816;48.506;9.050;2023-12-28T01:50:47;4.93;;;3.43;;
13487;SDS011;6816;48.506;9.050;2023-12-28T01:53:48;5.87;;;3.47;;
13487;SDS011;6816;48.506;9.050;2023-12-28T01:56:50;5.13;;;3.77;;
13487;SDS011;6816;48.506;9.050;2023-12-28T01:59:51;6.67;;;4.37;;
13487;SDS011;6816;48.506;9.050;2023-12-28T02:02:53;4.87;;;3.57;;
13487;SDS011;6816;48.506;9.050;2023-12-28T02:05:54;4.53;;;3.53;;
13487;SDS011;6816;48.506;9.050;2023-12-28T02:08:55;4.37;;;3.23;;
13487;SDS011;6816;48.506;9.050;2023-12-28T02:11:55;4.97;;;3.30;;
13487;SDS011;6816;48.506;9.050;2023-12-28T02:14:56;4.60;;;3.43;;
13487;SDS011;6816;48.506;9.050;2023-12-28T02:18:09;4.53;;;3.50;;
13487;SDS011;6816;48.506;9.050;2023-12-28T02:21:12;4.67;;;3.27;;
13487;SDS011;6816;48.506;9.050;2023-12-28T02:24:14;5.57;;;3.27;;
13487;SDS011;6816;48.506;9.050;2023-12-28T02:27:14;5.07;;;3.10;;
13487;SDS011;6816;48.506;9.050;2023-12-28T02:30:15;4.63;;;3.27;;
13487;SDS011;6816;48.506;9.050;2023-12-28T02:36:22;3.93;;;2.93;;
13487;SDS011;6816;48.506;9.050;2023-12-28T02:39:24;4.33;;;3.30;;
13487;SDS011;6816;48.506;9.050;2023-12-28T02:42:25;5.83;;;3.07;;
13487;SDS011;6816;48.506;9.050;2023-12-28T02:45:26;4.93;;;3.20;;
13487;SDS011;6816;48.506;9.050;2023-12-28T02:48:27;4.37;;;3.03;;
13487;SDS011;6816;48.506;9.050;2023-12-28T02:51:27;3.37;;;2.80;;
13487;SDS011;6816;48.506;9.050;2023-12-28T02:54:28;4.07;;;2.97;;
13487;SDS011;6816;48.506;9.050;2023-12-28T02:57:28;4.13;;;2.80;;
13487;SDS011;6816;48.506;9.050;2023-12-28T03:00:29;4.63;;;3.10;;
13487;SDS011;6816;48.506;9.050;2023-12-28T03:03:30;4.10;;;3.03;;
13487;SDS011;6816;48.506;9.050;2023-12-28T03:06:30;3.83;;;2.80;;
13487;SDS011;6816;48.506;9.050;2023-12-28T03:09:31;3.53;;;2.80;;
13487;SDS011;6816;48.506;9.050;2023-12-28T03:12:31;4.67;;;3.30;;
13487;SDS011;6816;48.506;9.050;2023-12-28T03:15:32;3.57;;;2.93;;
13487;SDS011;6816;48.506;9.050;2023-12-28T03:18:33;3.30;;;2.83;;
13487;SDS011;6816;48.506;9.050;2023-12-28T03:21:38;3.93;;;2.90;;
13487;SDS011;6816;48.506;9.050;2023-12-28T03:24:40;4.10;;;3.13;;
13487;SDS011;6816;48.506;9.050;2023-12-28T03:27:41;3.43;;;2.93;;
13487;SDS011;6816;48.506;9.050;2023-12-28T03:30:41;4.90;;;3.00;;
13487;SDS011;6816;48.506;9.050;2023-12-28T03:33:42;3.93;;;2.47;;
13487;SDS011;6816;48.506;9.050;2023-12-28T03:36:44;3.67;;;2.80;;
13487;SDS011;6816;48.506;9.050;2023-12-28T03:39:45;5.63;;;2.97;;
13487;SDS011;6816;48.506;9.050;2023-12-28T03:42:45;4.77;;;3.27;;
13487;SDS011;6816;48.506;9.050;2023-12-28T03:45:46;4.23;;;2.77;;
13487;SDS011;6816;48.506;9.050;2023-12-28T03:48:46;3.50;;;2.83;;
13487;SDS011;6816;48.506;9.050;2023-12-28T03:51:49;3.77;;;2.90;;
13487;SDS011;6816;48.506;9.050;2023-12-28T03:54:50;3.10;;;2.67;;
13487;SDS011;6816;48.506;9.050;2023-12-28T03:57:51;3.23;;;2.47;;
13487;SDS011;6816;48.506;9.050;2023-12-28T04:00:52;3.97;;;3.10;;
13487;SDS011;6816;48.506;9.050;2023-12-28T04:03:52;4.67;;;2.70;;
13487;SDS011;6816;48.506;9.050;2023-12-28T04:06:53;4.37;;;3.00;;
13487;SDS011;6816;48.506;9.050;2023-12-28T04:09:54;4.70;;;2.80;;
13487;SDS011;6816;48.506;9.050;2023-12-28T04:12:56;5.33;;;2.97;;
13487;SDS011;6816;48.506;9.050;2023-12-28T04:15:57;3.67;;;2.90;;
13487;SDS011;6816;48.506;9.050;2023-12-28T04:18:58;4.47;;;3.00;;
13487;SDS011;6816;48.506;9.050;2023-12-28T04:21:59;3.07;;;2.57;;
13487;SDS011;6816;48.506;9.050;2023-12-28T04:24:59;4.37;;;2.80;;
13487;SDS011;6816;48.506;9.050;2023-12-28T04:28:00;3.47;;;2.63;;
13487;SDS011;6816;48.506;9.050;2023-12-28T04:31:04;3.93;;;2.77;;
13487;SDS011;6816;48.506;9.050;2023-12-28T04:34:05;4.63;;;2.53;;
13487;SDS011;6816;48.506;9.050;2023-12-28T04:37:05;2.50;;;2.30;;
13487;SDS011;6816;48.506;9.050;2023-12-28T04:40:06;4.07;;;2.83;;
13487;SDS011;6816;48.506;9.050;2023-12-28T04:43:09;4.80;;;3.00;;
13487;SDS011;6816;48.506;9.050;2023-12-28T04:46:09;3.93;;;3.00;;
13487;SDS011;6816;48.506;9.050;2023-12-28T04:49:10;3.60;;;2.93;;
13487;SDS011;6816;48.506;9.050;2023-12-28T04:52:11;3.67;;;2.97;;
13487;SDS011;6816;48.506;9.050;2023-12-28T04:55:13;4.37;;;2.87;;
13487;SDS011;6816;48.506;9.050;2023-12-28T04:58:14;2.63;;;2.17;;
13487;SDS011;6816;48.506;9.050;2023-12-28T05:01:14;2.90;;;2.60;;
13487;SDS011;6816;48.506;9.050;2023-12-28T05:04:15;4.97;;;2.97;;
13487;SDS011;6816;48.506;9.050;2023-12-28T05:07:16;3.53;;;2.63;;
13487;SDS011;6816;48.506;9.050;2023-12-28T05:10:16;4.20;;;2.90;;
13487;SDS011;6816;48.506;9.050;2023-12-28T05:13:17;3.47;;;2.73;;
13487;SDS011;6816;48.506;9.050;2023-12-28T05:16:18;3.10;;;2.67;;
13487;SDS011;6816;48.506;9.050;2023-12-28T05:19:18;3.37;;;2.73;;
13487;SDS011;6816;48.506;9.050;2023-12-28T05:22:19;2.77;;;2.40;;
13487;SDS011;6816;48.506;9.050;2023-12-28T05:25:19;2.97;;;2.47;;
13487;SDS011;6816;48.506;9.050;2023-12-28T05:28:20;3.40;;;2.70;;
13487;SDS011;6816;48.506;9.050;2023-12-28T05:31:21;3.23;;;2.57;;
13487;SDS011;6816;48.506;9.050;2023-12-28T05:34:21;2.70;;;2.30;;
13487;SDS011;6816;48.506;9.050;2023-12-28T05:37:22;2.40;;;2.00;;
13487;SDS011;6816;48.506;9.050;2023-12-28T05:40:22;3.67;;;2.63;;
13487;SDS011;6816;48.506;9.050;2023-12-28T05:43:23;4.20;;;2.30;;
13487;SDS011;6816;48.506;9.050;2023-12-28T05:46:24;4.03;;;2.70;;
13487;SDS011;6816;48.506;9.050;2023-12-28T05:49:24;4.93;;;2.70;;
13487;SDS011;6816;48.506;9.050;2023-12-28T05:52:25;3.53;;;2.83;;
13487;SDS011;6816;48.506;9.050;2023-12-28T05:55:25;2.90;;;2.60;;
13487;SDS011;6816;48.506;9.050;2023-12-28T05:58:26;3.67;;;3.00;;
13487;SDS011;6816;48.506;9.050;2023-12-28T06:01:26;4.53;;;2.53;;
13487;SDS011;6816;48.506;9.050;2023-12-28T06:04:27;3.30;;;2.50;;
13487;SDS011;6816;48.506;9.050;2023-12-28T06:07:28;4.63;;;3.00;;
13487;SDS011;6816;48.506;9.050;2023-12-28T06:10:28;6.03;;;2.60;;
13487;SDS011;6816;48.506;9.050;2023-12-28T06:13:29;3.40;;;2.77;;
13487;SDS011;6816;48.506;9.050;2023-12-28T06:16:30;2.97;;;2.60;;
13487;SDS011;6816;48.506;9.050;2023-12-28T06:19:32;3.07;;;2.50;;
13487;SDS011;6816;48.506;9.050;2023-12-28T06:22:33;4.10;;;2.90;;
13487;SDS011;6816;48.506;9.050;2023-12-28T06:25:36;3.63;;;2.53;;
13487;SDS011;6816;48.506;9.050;2023-12-28T06:28:37;2.27;;;2.07;;
13487;SDS011;6816;48.506;9.050;2023-12-28T06:31:37;4.07;;;2.73;;
13487;SDS011;6816;48.506;9.050;2023-12-28T06:34:39;2.77;;;2.37;;
13487;SDS011;6816;48.506;9.050;2023-12-28T06:37:39;3.97;;;2.37;;
13487;SDS011;6816;48.506;9.050;2023-12-28T06:40:41;3.70;;;2.57;;
13487;SDS011;6816;48.506;9.050;2023-12-28T06:43:42;4.83;;;2.73;;
13487;SDS011;6816;48.506;9.050;2023-12-28T06:46:42;3.80;;;2.30;;
13487;SDS011;6816;48.506;9.050;2023-12-28T06:49:43;3.03;;;2.20;;
13487;SDS011;6816;48.506;9.050;2023-12-28T06:52:44;3.70;;;2.10;;
13487;SDS011;6816;48.506;9.050;2023-12-28T06:55:44;5.77;;;2.50;;
13487;SDS011;6816;48.506;9.050;2023-12-28T06:58:45;4.40;;;2.50;;
13487;SDS011;6816;48.506;9.050;2023-12-28T07:01:45;3.00;;;2.23;;
13487;SDS011;6816;48.506;9.050;2023-12-28T07:04:48;2.87;;;2.10;;
13487;SDS011;6816;48.506;9.050;2023-12-28T07:07:48;3.40;;;2.20;;
13487;SDS011;6816;48.506;9.050;2023-12-28T07:10:49;3.70;;;2.07;;
13487;SDS011;6816;48.506;9.050;2023-12-28T07:13:49;2.63;;;2.20;;
13487;SDS011;6816;48.506;9.050;2023-12-28T07:16:50;3.77;;;2.27;;
13487;SDS011;6816;48.506;9.050;2023-12-28T07:19:51;3.10;;;2.10;;
13487;SDS011;6816;48.506;9.050;2023-12-28T07:22:51;3.13;;;2.23;;
13487;SDS011;6816;48.506;9.050;2023-12-28T07:25:52;2.70;;;2.50;;
13487;SDS011;6816;48.506;9.050;2023-12-28T07:28:53;5.10;;;2.73;;
13487;SDS011;6816;48.506;9.050;2023-12-28T07:31:54;3.57;;;2.20;;
13487;SDS011;6816;48.506;9.050;2023-12-28T07:34:55;4.27;;;2.70;;
13487;SDS011;6816;48.506;9.050;2023-12-28T07:37:56;2.77;;;2.50;;
13487;SDS011;6816;48.506;9.050;2023-12-28T07:40:58;2.53;;;2.17;;
13487;SDS011;6816;48.506;9.050;2023-12-28T07:43:59;3.63;;;2.70;;
13487;SDS011;6816;48.506;9.050;2023-12-28T07:46:59;4.10;;;2.80;;
13487;SDS011;6816;48.506;9.050;2023-12-28T07:50:00;3.83;;;2.90;;
13487;SDS011;6816;48.506;9.050;2023-12-28T07:53:00;3.57;;;2.60;;
13487;SDS011;6816;48.506;9.050;2023-12-28T07:56:01;3.67;;;2.87;;
13487;SDS011;6816;48.506;9.050;2023-12-28T07:59:02;3.17;;;2.73;;
13487;SDS011;6816;48.506;9.050;2023-12-28T08:02:03;3.67;;;3.13;;
13487;SDS011;6816;48.506;9.050;2023-12-28T08:05:05;3.43;;;2.80;;
13487;SDS011;6816;48.506;9.050;2023-12-28T08:08:06;4.53;;;3.20;;
13487;SDS011;6816;48.506;9.050;2023-12-28T08:11:06;3.77;;;2.80;;
13487;SDS011;6816;48.506;9.050;2023-12-28T08:14:07;4.67;;;3.40;;
13487;SDS011;6816;48.506;9.050;2023-12-28T08:17:07;4.07;;;2.90;;
13487;SDS011;6816;48.506;9.050;2023-12-28T08:20:08;4.50;;;3.30;;
13487;SDS011;6816;48.506;9.050;2023-12-28T08:23:09;5.53;;;3.57;;
13487;SDS011;6816;48.506;9.050;2023-12-28T08:26:09;3.90;;;3.00;;
13487;SDS011;6816;48.506;9.050;2023-12-28T08:29:10;3.77;;;3.20;;
13487;SDS011;6816;48.506;9.050;2023-12-28T08:32:11;4.23;;;2.97;;
13487;SDS011;6816;48.506;9.050;2023-12-28T08:35:12;3.57;;;3.07;;
13487;SDS011;6816;48.506;9.050;2023-12-28T08:38:12;3.90;;;2.97;;
13487;SDS011;6816;48.506;9.050;2023-12-28T08:41:19;2.90;;;2.23;;
13487;SDS011;6816;48.506;9.050;2023-12-28T08:44:26;2.80;;;2.50;;
13487;SDS011;6816;48.506;9.050;2023-12-28T08:47:27;3.37;;;2.83;;
13487;SDS011;6816;48.506;9.050;2023-12-28T08:50:28;4.00;;;3.10;;
13487;SDS011;6816;48.506;9.050;2023-12-28T08:53:28;3.30;;;2.83;;
13487;SDS011;6816;48.506;9.050;2023-12-28T08:56:29;3.83;;;3.03;;
13487;SDS011;6816;48.506;9.050;2023-12-28T08:59:30;3.80;;;2.67;;
13487;SDS011;6816;48.506;9.050;2023-12-28T09:02:30;3.83;;;3.07;;
13487;SDS011;6816;48.506;9.050;2023-12-28T09:05:31;3.67;;;3.10;;
13487;SDS011;6816;48.506;9.050;2023-12-28T09:08:34;4.57;;;3.43;;
13487;SDS011;6816;48.506;9.050;2023-12-28T09:11:35;5.40;;;3.63;;
13487;SDS011;6816;48.506;9.050;2023-12-28T09:14:35;5.07;;;4.03;;
13487;SDS011;6816;48.506;9.050;2023-12-28T09:17:36;4.63;;;3.80;;
13487;SDS011;6816;48.506;9.050;2023-12-28T09:20:37;5.00;;;3.90;;
13487;SDS011;6816;48.506;9.050;2023-12-28T09:23:38;4.27;;;3.87;;
13487;SDS011;6816;48.506;9.050;2023-12-28T09:26:40;5.07;;;3.97;;
13487;SDS011;6816;48.506;9.050;2023-12-28T09:29:41;5.23;;;3.87;;
13487;SDS011;6816;48.506;9.050;2023-12-28T09:32:41;5.97;;;4.63;;
13487;SDS011;6816;48.506;9.050;2023-12-28T09:35:42;4.77;;;4.27;;
13487;SDS011;6816;48.506;9.050;2023-12-28T09:38:43;6.07;;;4.50;;
13487;SDS011;6816;48.506;9.050;2023-12-28T09:41:45;5.57;;;4.30;;
13487;SDS011;6816;48.506;9.050;2023-12-28T09:44:55;5.47;;;4.07;;
13487;SDS011;6816;48.506;9.050;2023-12-28T09:47:56;8.20;;;5.03;;
13487;SDS011;6816;48.506;9.050;2023-12-28T09:50:57;5.27;;;4.50;;
13487;SDS011;6816;48.506;9.050;2023-12-28T09:53:58;5.27;;;3.97;;
13487;SDS011;6816;48.506;9.050;2023-12-28T09:56:58;4.83;;;4.17;;
13487;SDS011;6816;48.506;9.050;2023-12-28T09:59:59;5.43;;;4.40;;
13487;SDS011;6816;48.506;9.050;2023-12-28T10:03:00;5.27;;;3.83;;
13487;SDS011;6816;48.506;9.050;2023-12-28T10:06:03;4.80;;;4.07;;
13487;SDS011;6816;48.506;9.050;2023-12-28T10:09:03;5.10;;;4.00;;
13487;SDS011;6816;48.506;9.050;2023-12-28T10:12:07;6.57;;;4.23;;
13487;SDS011;6816;48.506;9.050;2023-12-28T10:15:09;4.57;;;3.93;;
13487;SDS011;6816;48.506;9.050;2023-12-28T10:18:10;4.40;;;4.00;;
13487;SDS011;6816;48.506;9.050;2023-12-28T10:21:10;4.83;;;3.83;;
13487;SDS011;6816;48.506;9.050;2023-12-28T10:24:11;6.33;;;4.60;;
13487;SDS011;6816;48.506;9.050;2023-12-28T10:27:15;5.27;;;3.83;;
13487;SDS011;6816;48.506;9.050;2023-12-28T10:30:16;5.30;;;4.03;;
13487;SDS011;6816;48.506;9.050;2023-12-28T10:33:16;4.83;;;4.40;;
13487;SDS011;6816;48.506;9.050;2023-12-28T10:36:19;5.87;;;4.50;;
13487;SDS011;6816;48.506;9.050;2023-12-28T10:39:21;5.37;;;4.57;;
13487;SDS011;6816;48.506;9.050;2023-12-28T10:45:32;5.60;;;4.43;;
13487;SDS011;6816;48.506;9.050;2023-12-28T10:48:36;4.50;;;4.03;;
13487;SDS011;6816;48.506;9.050;2023-12-28T10:51:41;6.23;;;4.63;;
13487;SDS011;6816;48.506;9.050;2023-12-28T10:54:57;7.57;;;4.57;;
13487;SDS011;6816;48.506;9.050;2023-12-28T10:58:34;6.03;;;4.90;;
13487;SDS011;6816;48.506;9.050;2023-12-28T11:01:46;7.40;;;5.50;;
13487;SDS011;6816;48.506;9.050;2023-12-28T11:04:50;6.17;;;4.43;;
13487;SDS011;6816;48.506;9.050;2023-12-28T11:07:52;6.33;;;4.83;;
13487;SDS011;6816;48.506;9.050;2023-12-28T11:10:58;7.10;;;5.90;;
13487;SDS011;6816;48.506;9.050;2023-12-28T11:14:01;6.67;;;5.97;;
13487;SDS011;6816;48.506;9.050;2023-12-28T11:17:02;6.73;;;6.03;;
13487;SDS011;6816;48.506;9.050;2023-12-28T11:20:04;8.23;;;6.60;;
13487;SDS011;6816;48.506;9.050;2023-12-28T11:23:06;7.90;;;5.80;;
13487;SDS011;6816;48.506;9.050;2023-12-28T11:26:20;9.70;;;5.80;;
13487;SDS011;6816;48.506;9.050;2023-12-28T11:29:22;8.97;;;5.30;;
13487;SDS011;6816;48.506;9.050;2023-12-28T11:32:23;8.03;;;5.27;;
13487;SDS011;6816;48.506;9.050;2023-12-28T11:35:31;6.73;;;5.40;;
13487;SDS011;6816;48.506;9.050;2023-12-28T11:38:36;8.13;;;5.90;;
13487;SDS011;6816;48.506;9.050;2023-12-28T11:41:40;8.30;;;5.90;;
13487;SDS011;6816;48.506;9.050;2023-12-28T11:44:43;8.33;;;5.73;;
13487;SDS011;6816;48.506;9.050;2023-12-28T11:47:44;9.03;;;5.60;;
13487;SDS011;6816;48.506;9.050;2023-12-28T11:50:45;12.70;;;10.63;;
13487;SDS011;6816;48.506;9.050;2023-12-28T11:53:45;16.50;;;12.40;;
13487;SDS011;6816;48.506;9.050;2023-12-28T11:56:46;10.57;;;9.13;;
13487;SDS011;6816;48.506;9.050;2023-12-28T11:59:57;12.00;;;9.80;;
13487;SDS011;6816;48.506;9.050;2023-12-28T12:02:58;14.60;;;9.47;;
13487;SDS011;6816;48.506;9.050;2023-12-28T12:05:59;8.30;;;6.20;;
13487;SDS011;6816;48.506;9.050;2023-12-28T12:09:00;7.47;;;6.27;;
13487;SDS011;6816;48.506;9.050;2023-12-28T12:12:01;8.07;;;6.27;;
13487;SDS011;6816;48.506;9.050;2023-12-28T12:15:02;6.70;;;6.00;;
13487;SDS011;6816;48.506;9.050;2023-12-28T12:18:03;5.60;;;4.70;;
13487;SDS011;6816;48.506;9.050;2023-12-28T12:21:04;4.67;;;4.10;;
13487;SDS011;6816;48.506;9.050;2023-12-28T12:24:06;4.70;;;3.97;;
13487;SDS011;6816;48.506;9.050;2023-12-28T12:27:07;4.60;;;3.37;;
13487;SDS011;6816;48.506;9.050;2023-12-28T12:30:07;4.90;;;3.67;;
13487;SDS011;6816;48.506;9.050;2023-12-28T12:33:09;6.53;;;3.57;;
13487;SDS011;6816;48.506;9.050;2023-12-28T12:36:10;5.93;;;4.10;;
13487;SDS011;6816;48.506;9.050;2023-12-28T12:39:11;4.60;;;3.73;;
13487;SDS011;6816;48.506;9.050;2023-12-28T12:42:12;3.80;;;3.13;;
13487;SDS011;6816;48.506;9.050;2023-12-28T12:45:13;6.47;;;3.83;;
13487;SDS011;6816;48.506;9.050;2023-12-28T12:48:15;4.47;;;3.60;;
13487;SDS011;6816;48.506;9.050;2023-12-28T12:51:17;3.50;;;3.20;;
13487;SDS011;6816;48.506;9.050;2023-12-28T12:54:18;4.33;;;3.13;;
13487;SDS011;6816;48.506;9.050;2023-12-28T12:57:19;4.67;;;3.60;;
13487;SDS011;6816;48.506;9.050;2023-12-28T13:00:20;5.97;;;4.13;;
13487;SDS011;6816;48.506;9.050;2023-12-28T13:03:21;5.47;;;4.40;;
13487;SDS011;6816;48.506;9.050;2023-12-28T13:06:22;6.20;;;4.43;;
13487;SDS011;6816;48.506;9.050;2023-12-28T13:09:23;4.23;;;3.77;;
13487;SDS011;6816;48.506;9.050;2023-12-28T13:12:24;5.77;;;3.73;;
13487;SDS011;6816;48.506;9.050;2023-12-28T13:15:24;4.07;;;3.20;;
13487;SDS011;6816;48.506;9.050;2023-12-28T13:18:25;2.83;;;2.40;;
13487;SDS011;6816;48.506;9.050;2023-12-28T13:21:26;2.33;;;1.73;;
13487;SDS011;6816;48.506;9.050;2023-12-28T13:24:26;2.80;;;2.10;;
13487;SDS011;6816;48.506;9.050;2023-12-28T13:27:27;15.93;;;10.87;;
13487;SDS011;6816;48.506;9.050;2023-12-28T13:30:28;16.60;;;12.00;;
13487;SDS011;6816;48.506;9.050;2023-12-28T13:33:29;13.40;;;10.13;;
13487;SDS011;6816;48.506;9.050;2023-12-28T13:36:29;8.03;;;6.40;;
13487;SDS011;6816;48.506;9.050;2023-12-28T13:39:30;6.43;;;4.47;;
13487;SDS011;6816;48.506;9.050;2023-12-28T13:42:31;4.87;;;3.93;;
13487;SDS011;6816;48.506;9.050;2023-12-28T13:45:32;4.30;;;3.80;;
13487;SDS011;6816;48.506;9.050;2023-12-28T13:48:32;4.13;;;3.67;;
13487;SDS011;6816;48.506;9.050;2023-12-28T13:51:33;3.73;;;3.33;;
13487;SDS011;6816;48.506;9.050;2023-12-28T13:54:34;2.93;;;2.73;;
13487;SDS011;6816;48.506;9.050;2023-12-28T13:57:35;3.03;;;2.73;;
13487;SDS011;6816;48.506;9.050;2023-12-28T14:00:35;2.53;;;2.33;;
13487;SDS011;6816;48.506;9.050;2023-12-28T14:03:36;5.00;;;2.80;;
13487;SDS011;6816;48.506;9.050;2023-12-28T14:06:36;2.40;;;1.97;;
13487;SDS011;6816;48.506;9.050;2023-12-28T14:09:37;2.50;;;2.30;;
13487;SDS011;6816;48.506;9.050;2023-12-28T14:12:38;3.23;;;2.33;;
13487;SDS011;6816;48.506;9.050;2023-12-28T14:15:38;3.57;;;2.67;;
13487;SDS011;6816;48.506;9.050;2023-12-28T14:18:39;2.40;;;2.20;;
13487;SDS011;6816;48.506;9.050;2023-12-28T14:21:42;2.87;;;2.30;;
13487;SDS011;6816;48.506;9.050;2023-12-28T14:24:43;4.13;;;2.30;;
13487;SDS011;6816;48.506;9.050;2023-12-28T14:27:44;7.77;;;6.53;;
13487;SDS011;6816;48.506;9.050;2023-12-28T14:30:44;7.73;;;6.93;;
13487;SDS011;6816;48.506;9.050;2023-12-28T14:33:45;5.67;;;4.93;;
13487;SDS011;6816;48.506;9.050;2023-12-28T14:36:47;5.23;;;4.70;;
13487;SDS011;6816;48.506;9.050;2023-12-28T14:39:49;5.80;;;4.10;;
13487;SDS011;6816;48.506;9.050;2023-12-28T14:42:50;4.27;;;3.70;;
13487;SDS011;6816;48.506;9.050;2023-12-28T14:45:51;4.43;;;3.40;;
13487;SDS011;6816;48.506;9.050;2023-12-28T14:48:53;4.50;;;3.47;;
13487;SDS011;6816;48.506;9.050;2023-12-28T14:51:54;4.27;;;3.83;;
13487;SDS011;6816;48.506;9.050;2023-12-28T14:54:55;3.97;;;3.40;;
13487;SDS011;6816;48.506;9.050;2023-12-28T14:57:55;3.80;;;3.40;;
13487;SDS011;6816;48.506;9.050;2023-12-28T15:00:56;4.23;;;3.40;;
13487;SDS011;6816;48.506;9.050;2023-12-28T15:03:56;4.30;;;3.27;;
13487;SDS011;6816;48.506;9.050;2023-12-28T15:06:57;3.87;;;3.03;;
13487;SDS011;6816;48.506;9.050;2023-12-28T15:09:59;3.50;;;2.73;;
13487;SDS011;6816;48.506;9.050;2023-12-28T15:13:00;4.03;;;2.67;;
13487;SDS011;6816;48.506;9.050;2023-12-28T15:16:01;2.90;;;2.50;;
13487;SDS011;6816;48.506;9.050;2023-12-28T15:19:03;3.17;;;2.33;;
13487;SDS011;6816;48.506;9.050;2023-12-28T15:22:04;5.60;;;4.33;;
13487;SDS011;6816;48.506;9.050;2023-12-28T15:25:05;6.23;;;5.07;;
13487;SDS011;6816;48.506;9.050;2023-12-28T15:28:08;6.83;;;5.13;;
13487;SDS011;6816;48.506;9.050;2023-12-28T15:31:09;6.33;;;5.13;;
13487;SDS011;6816;48.506;9.050;2023-12-28T15:34:10;6.43;;;4.83;;
13487;SDS011;6816;48.506;9.050;2023-12-28T15:37:10;7.10;;;5.37;;
13487;SDS011;6816;48.506;9.050;2023-12-28T15:40:11;8.50;;;5.67;;
13487;SDS011;6816;48.506;9.050;2023-12-28T15:43:11;7.87;;;5.57;;
13487;SDS011;6816;48.506;9.050;2023-12-28T15:46:12;10.00;;;7.33;;
13487;SDS011;6816;48.506;9.050;2023-12-28T15:49:13;8.23;;;6.10;;
13487;SDS011;6816;48.506;9.050;2023-12-28T15:52:13;6.83;;;5.10;;
13487;SDS011;6816;48.506;9.050;2023-12-28T15:55:14;7.10;;;5.03;;
13487;SDS011;6816;48.506;9.050;2023-12-28T15:58:14;5.13;;;3.33;;
13487;SDS011;6816;48.506;9.050;2023-12-28T16:01:15;4.70;;;3.23;;
13487;SDS011;6816;48.506;9.050;2023-12-28T16:04:18;5.33;;;3.60;;
13487;SDS011;6816;48.506;9.050;2023-12-28T16:07:19;5.13;;;3.43;;
13487;SDS011;6816;48.506;9.050;2023-12-28T16:10:19;3.30;;;2.83;;
13487;SDS011;6816;48.506;9.050;2023-12-28T16:13:21;3.40;;;3.10;;
13487;SDS011;6816;48.506;9.050;2023-12-28T16:16:21;3.60;;;2.90;;
13487;SDS011;6816;48.506;9.050;2023-12-28T16:19:22;6.07;;;3.20;;
13487;SDS011;6816;48.506;9.050;2023-12-28T16:22:23;3.83;;;3.10;;
13487;SDS011;6816;48.506;9.050;2023-12-28T16:25:24;5.60;;;4.27;;
13487;SDS011;6816;48.506;9.050;2023-12-28T16:28:25;4.73;;;3.53;;
13487;SDS011;6816;48.506;9.050;2023-12-28T16:31:25;4.67;;;4.17;;
13487;SDS011;6816;48.506;9.050;2023-12-28T16:34:27;4.33;;;3.57;;
13487;SDS011;6816;48.506;9.050;2023-12-28T16:37:28;10.27;;;5.17;;
13487;SDS011;6816;48.506;9.050;2023-12-28T16:40:29;11.27;;;5.03;;
13487;SDS011;6816;48.506;9.050;2023-12-28T16:43:29;11.23;;;5.47;;
13487;SDS011;6816;48.506;9.050;2023-12-28T16:46:30;11.63;;;5.83;;
13487;SDS011;6816;48.506;9.050;2023-12-28T16:49:31;9.97;;;5.70;;
13487;SDS011;6816;48.506;9.050;2023-12-28T16:52:31;10.17;;;5.17;;
13487;SDS011;6816;48.506;9.050;2023-12-28T16:55:32;9.13;;;5.47;;
13487;SDS011;6816;48.506;9.050;2023-12-28T16:58:34;8.47;;;5.63;;
13487;SDS011;6816;48.506;9.050;2023-12-28T17:01:34;7.07;;;5.10;;
13487;SDS011;6816;48.506;9.050;2023-12-28T17:04:35;8.00;;;5.70;;
13487;SDS011;6816;48.506;9.050;2023-12-28T17:07:36;6.63;;;5.93;;
13487;SDS011;6816;48.506;9.050;2023-12-28T17:10:36;6.53;;;5.57;;
13487;SDS011;6816;48.506;9.050;2023-12-28T17:13:40;7.03;;;5.70;;
13487;SDS011;6816;48.506;9.050;2023-12-28T17:16:41;6.60;;;5.20;;
13487;SDS011;6816;48.506;9.050;2023-12-28T17:19:42;7.17;;;5.30;;
13487;SDS011;6816;48.506;9.050;2023-12-28T17:22:43;7.63;;;6.17;;
13487;SDS011;6816;48.506;9.050;2023-12-28T17:25:50;6.77;;;5.33;;
13487;SDS011;6816;48.506;9.050;2023-12-28T17:29:06;6.70;;;5.23;;
13487;SDS011;6816;48.506;9.050;2023-12-28T17:32:07;4.83;;;3.93;;
13487;SDS011;6816;48.506;9.050;2023-12-28T17:35:12;4.90;;;4.20;;
13487;SDS011;6816;48.506;9.050;2023-12-28T17:38:13;4.83;;;4.33;;
13487;SDS011;6816;48.506;9.050;2023-12-28T17:41:15;4.33;;;3.93;;
13487;SDS011;6816;48.506;9.050;2023-12-28T17:44:19;6.83;;;4.50;;
13487;SDS011;6816;48.506;9.050;2023-12-28T17:47:32;5.40;;;4.23;;
13487;SDS011;6816;48.506;9.050;2023-12-28T17:50:42;4.20;;;3.80;;
13487;SDS011;6816;48.506;9.050;2023-12-28T17:53:43;4.60;;;4.03;;
13487;SDS011;6816;48.506;9.050;2023-12-28T17:56:44;5.97;;;4.43;;
13487;SDS011;6816;48.506;9.050;2023-12-28T17:59:45;5.53;;;4.17;;
13487;SDS011;6816;48.506;9.050;2023-12-28T18:02:45;5.53;;;4.50;;
13487;SDS011;6816;48.506;9.050;2023-12-28T18:05:46;4.77;;;4.27;;
13487;SDS011;6816;48.506;9.050;2023-12-28T18:08:47;5.73;;;4.47;;
13487;SDS011;6816;48.506;9.050;2023-12-28T18:11:48;5.40;;;4.20;;
13487;SDS011;6816;48.506;9.050;2023-12-28T18:14:49;5.13;;;4.17;;
13487;SDS011;6816;48.506;9.050;2023-12-28T18:17:50;4.97;;;4.17;;
13487;SDS011;6816;48.506;9.050;2023-12-28T18:20:50;5.30;;;4.30;;
13487;SDS011;6816;48.506;9.050;2023-12-28T18:23:54;6.07;;;4.53;;
13487;SDS011;6816;48.506;9.050;2023-12-28T18:26:54;5.43;;;4.77;;
13487;SDS011;6816;48.506;9.050;2023-12-28T18:29:55;5.50;;;4.67;;
13487;SDS011;6816;48.506;9.050;2023-12-28T18:32:55;5.47;;;4.30;;
13487;SDS011;6816;48.506;9.050;2023-12-28T18:35:56;4.67;;;4.20;;